sensor_id;sensor_type;location;lat;lon;timestamp;P1;durP1;ratioP1;P2;durP2;ratioP2
4903;SDS011;2467;48.142;11.616;2022-08-01T00:00:15;3.88;;;3.67;;
4903;SDS011;2467;48.142;11.616;2022-08-01T00:00:47;4.68;;;3.15;;
4903;SDS011;2467;48.142;11.616;2022-08-01T00:01:20;3.15;;;2.85;;
4903;SDS011;2467;48.142;11.616;2022-08-01T00:01:52;3.03;;;2.83;;
4903;SDS011;2467;48.142;11.616;2022-08-01T00:02:23;3.03;;;2.90;;
4903;SDS011;2467;48.142;11.616;2022-08-01T00:02:58;3.80;;;3.50;;
4903;SDS011;2467;48.142;11.616;2022-08-01T00:03:30;3.30;;;3.10;;
4903;SDS011;2467;48.142;11.616;2022-08-01T00:04:02;3.30;;;3.00;;
4903;SDS011;2467;48.142;11.616;2022-08-01T00:04:35;3.42;;;3.13;;
4903;SDS011;2467;48.142;11.616;2022-08-01T00:05:08;3.28;;;3.08;;
4903;SDS011;2467;48.142;11.616;2022-08-01T00:05:41;3.78;;;3.15;;
4903;SDS011;2467;48.142;11.616;2022-08-01T00:06:15;3.38;;;3.17;;
4903;SDS011;2467;48.142;11.616;2022-08-01T00:06:47;3.45;;;3.10;;
4903;SDS011;2467;48.142;11.616;2022-08-01T00:07:19;3.63;;;3.33;;
4903;SDS011;2467;48.142;11.616;2022-08-01T00:07:52;3.00;;;2.80;;
4903;SDS011;2467;48.142;11.616;2022-08-01T00:08:24;3.17;;;2.88;;
4903;SDS011;2467;48.142;11.616;2022-08-01T00:08:57;2.70;;;2.60;;
4903;SDS011;2467;48.142;11.616;2022-08-01T00:09:30;3.50;;;3.20;;
4903;SDS011;2467;48.142;11.616;2022-08-01T00:10:03;4.25;;;3.05;;
4903;SDS011;2467;48.142;11.616;2022-08-01T00:10:36;3.25;;;3.05;;
4903;SDS011;2467;48.142;11.616;2022-08-01T00:11:08;3.17;;;2.97;;
4903;SDS011;2467;48.142;11.616;2022-08-01T00:11:40;2.72;;;2.53;;
4903;SDS011;2467;48.142;11.616;2022-08-01T00:12:13;3.22;;;3.00;;
4903;SDS011;2467;48.142;11.616;2022-08-01T00:12:46;4.32;;;2.78;;
4903;SDS011;2467;48.142;11.616;2022-08-01T00:13:18;3.13;;;2.92;;
4903;SDS011;2467;48.142;11.616;2022-08-01T00:13:50;3.15;;;2.95;;
4903;SDS011;2467;48.142;11.616;2022-08-01T00:14:22;3.45;;;3.25;;
4903;SDS011;2467;48.142;11.616;2022-08-01T00:15:03;3.08;;;2.88;;
4903;SDS011;2467;48.142;11.616;2022-08-01T00:15:37;3.20;;;3.00;;
4903;SDS011;2467;48.142;11.616;2022-08-01T00:16:09;3.38;;;2.70;;
4903;SDS011;2467;48.142;11.616;2022-08-01T00:16:41;3.53;;;3.13;;
4903;SDS011;2467;48.142;11.616;2022-08-01T00:17:14;3.20;;;3.00;;
4903;SDS011;2467;48.142;11.616;2022-08-01T00:17:46;3.00;;;2.80;;
4903;SDS011;2467;48.142;11.616;2022-08-01T00:18:18;3.85;;;3.55;;
4903;SDS011;2467;48.142;11.616;2022-08-01T00:18:51;3.10;;;2.90;;
4903;SDS011;2467;48.142;11.616;2022-08-01T00:19:23;2.80;;;2.70;;
4903;SDS011;2467;48.142;11.616;2022-08-01T00:19:54;3.30;;;3.05;;
4903;SDS011;2467;48.142;11.616;2022-08-01T00:20:27;3.15;;;2.85;;
4903;SDS011;2467;48.142;11.616;2022-08-01T00:21:00;3.10;;;2.90;;
4903;SDS011;2467;48.142;11.616;2022-08-01T00:21:32;3.55;;;2.95;;
4903;SDS011;2467;48.142;11.616;2022-08-01T00:22:04;3.15;;;2.90;;
4903;SDS011;2467;48.142;11.616;2022-08-01T00:22:37;3.10;;;2.90;;
4903;SDS011;2467;48.142;11.616;2022-08-01T00:23:09;3.58;;;3.38;;
4903;SDS011;2467;48.142;11.616;2022-08-01T00:23:41;4.35;;;3.40;;
4903;SDS011;2467;48.142;11.616;2022-08-01T00:24:16;3.28;;;2.97;;
4903;SDS011;2467;48.142;11.616;2022-08-01T00:24:48;3.88;;;3.60;;
4903;SDS011;2467;48.142;11.616;2022-08-01T00:25:20;3.38;;;3.17;;
4903;SDS011;2467;48.142;11.616;2022-08-01T00:26:04;3.25;;;3.05;;
4903;SDS011;2467;48.142;11.616;2022-08-01T00:26:36;3.63;;;3.42;;
4903;SDS011;2467;48.142;11.616;2022-08-01T00:27:09;2.92;;;2.72;;
4903;SDS011;2467;48.142;11.616;2022-08-01T00:27:41;3.40;;;3.20;;
4903;SDS011;2467;48.142;11.616;2022-08-01T00:28:13;3.67;;;3.47;;
4903;SDS011;2467;48.142;11.616;2022-08-01T00:28:47;3.42;;;3.22;;
4903;SDS011;2467;48.142;11.616;2022-08-01T00:29:19;3.47;;;3.17;;
4903;SDS011;2467;48.142;11.616;2022-08-01T00:30:11;3.22;;;3.03;;
4903;SDS011;2467;48.142;11.616;2022-08-01T00:30:45;4.05;;;3.35;;
4903;SDS011;2467;48.142;11.616;2022-08-01T00:31:17;3.30;;;3.00;;
4903;SDS011;2467;48.142;11.616;2022-08-01T00:31:51;3.22;;;2.92;;
4903;SDS011;2467;48.142;11.616;2022-08-01T00:32:24;3.65;;;3.00;;
4903;SDS011;2467;48.142;11.616;2022-08-01T00:32:56;3.40;;;3.20;;
4903;SDS011;2467;48.142;11.616;2022-08-01T00:33:28;2.95;;;2.75;;
4903;SDS011;2467;48.142;11.616;2022-08-01T00:34:01;3.38;;;3.08;;
4903;SDS011;2467;48.142;11.616;2022-08-01T00:34:32;3.72;;;3.28;;
4903;SDS011;2467;48.142;11.616;2022-08-01T00:35:05;3.80;;;3.50;;
4903;SDS011;2467;48.142;11.616;2022-08-01T00:35:38;3.25;;;3.05;;
4903;SDS011;2467;48.142;11.616;2022-08-01T00:36:10;3.28;;;2.47;;
4903;SDS011;2467;48.142;11.616;2022-08-01T00:36:41;4.07;;;3.88;;
4903;SDS011;2467;48.142;11.616;2022-08-01T00:37:14;3.25;;;2.95;;
4903;SDS011;2467;48.142;11.616;2022-08-01T00:37:47;3.00;;;2.80;;
4903;SDS011;2467;48.142;11.616;2022-08-01T00:38:18;3.17;;;2.97;;
4903;SDS011;2467;48.142;11.616;2022-08-01T00:38:50;3.35;;;3.00;;
4903;SDS011;2467;48.142;11.616;2022-08-01T00:39:24;3.53;;;2.50;;
4903;SDS011;2467;48.142;11.616;2022-08-01T00:39:56;2.92;;;2.80;;
4903;SDS011;2467;48.142;11.616;2022-08-01T00:40:28;3.08;;;2.90;;
4903;SDS011;2467;48.142;11.616;2022-08-01T00:41:01;3.22;;;3.03;;
4903;SDS011;2467;48.142;11.616;2022-08-01T00:41:33;4.05;;;3.08;;
4903;SDS011;2467;48.142;11.616;2022-08-01T00:42:06;3.30;;;3.10;;
4903;SDS011;2467;48.142;11.616;2022-08-01T00:42:39;3.33;;;2.97;;
4903;SDS011;2467;48.142;11.616;2022-08-01T00:43:14;3.30;;;3.10;;
4903;SDS011;2467;48.142;11.616;2022-08-01T00:43:46;3.10;;;2.53;;
4903;SDS011;2467;48.142;11.616;2022-08-01T00:44:19;3.08;;;2.88;;
4903;SDS011;2467;48.142;11.616;2022-08-01T00:44:51;3.60;;;3.30;;
4903;SDS011;2467;48.142;11.616;2022-08-01T00:45:22;3.83;;;3.38;;
4903;SDS011;2467;48.142;11.616;2022-08-01T00:45:57;3.55;;;3.35;;
4903;SDS011;2467;48.142;11.616;2022-08-01T00:46:29;2.80;;;2.60;;
4903;SDS011;2467;48.142;11.616;2022-08-01T00:47:02;3.10;;;2.90;;
4903;SDS011;2467;48.142;11.616;2022-08-01T00:47:34;5.07;;;2.85;;
4903;SDS011;2467;48.142;11.616;2022-08-01T00:48:06;4.13;;;3.92;;
4903;SDS011;2467;48.142;11.616;2022-08-01T00:48:39;3.00;;;2.80;;
4903;SDS011;2467;48.142;11.616;2022-08-01T00:49:11;3.17;;;3.00;;
4903;SDS011;2467;48.142;11.616;2022-08-01T00:49:44;2.75;;;2.55;;
4903;SDS011;2467;48.142;11.616;2022-08-01T00:50:16;3.00;;;2.80;;
4903;SDS011;2467;48.142;11.616;2022-08-01T00:50:48;3.55;;;3.20;;
4903;SDS011;2467;48.142;11.616;2022-08-01T00:51:22;2.92;;;2.83;;
4903;SDS011;2467;48.142;11.616;2022-08-01T00:51:54;2.40;;;2.30;;
4903;SDS011;2467;48.142;11.616;2022-08-01T00:52:26;2.85;;;2.65;;
4903;SDS011;2467;48.142;11.616;2022-08-01T00:52:59;4.95;;;2.85;;
4903;SDS011;2467;48.142;11.616;2022-08-01T00:53:32;3.30;;;3.10;;
4903;SDS011;2467;48.142;11.616;2022-08-01T00:54:21;2.58;;;2.47;;
4903;SDS011;2467;48.142;11.616;2022-08-01T00:54:56;2.50;;;2.40;;
4903;SDS011;2467;48.142;11.616;2022-08-01T00:55:29;3.10;;;2.90;;
4903;SDS011;2467;48.142;11.616;2022-08-01T00:56:02;2.90;;;2.70;;
4903;SDS011;2467;48.142;11.616;2022-08-01T00:56:35;3.20;;;2.95;;
4903;SDS011;2467;48.142;11.616;2022-08-01T00:57:07;2.60;;;2.50;;
4903;SDS011;2467;48.142;11.616;2022-08-01T00:57:41;3.10;;;2.80;;
4903;SDS011;2467;48.142;11.616;2022-08-01T00:58:34;3.50;;;3.20;;
4903;SDS011;2467;48.142;11.616;2022-08-01T00:59:07;2.88;;;2.67;;
4903;SDS011;2467;48.142;11.616;2022-08-01T00:59:41;3.40;;;2.65;;
4903;SDS011;2467;48.142;11.616;2022-08-01T01:00:13;3.50;;;3.20;;
4903;SDS011;2467;48.142;11.616;2022-08-01T01:00:46;3.30;;;3.10;;
4903;SDS011;2467;48.142;11.616;2022-08-01T01:01:24;3.55;;;3.25;;
4903;SDS011;2467;48.142;11.616;2022-08-01T01:02:09;3.40;;;3.15;;
4903;SDS011;2467;48.142;11.616;2022-08-01T01:02:46;2.92;;;2.72;;
4903;SDS011;2467;48.142;11.616;2022-08-01T01:03:17;3.55;;;3.25;;
4903;SDS011;2467;48.142;11.616;2022-08-01T01:03:50;3.10;;;2.80;;
4903;SDS011;2467;48.142;11.616;2022-08-01T01:04:29;3.53;;;3.22;;
4903;SDS011;2467;48.142;11.616;2022-08-01T01:05:01;3.35;;;3.15;;
4903;SDS011;2467;48.142;11.616;2022-08-01T01:05:34;3.05;;;2.85;;
4903;SDS011;2467;48.142;11.616;2022-08-01T01:06:23;3.03;;;2.72;;
4903;SDS011;2467;48.142;11.616;2022-08-01T01:07:01;3.28;;;3.08;;
4903;SDS011;2467;48.142;11.616;2022-08-01T01:07:40;2.83;;;2.70;;
4903;SDS011;2467;48.142;11.616;2022-08-01T01:08:22;3.05;;;2.85;;
4903;SDS011;2467;48.142;11.616;2022-08-01T01:09:02;3.00;;;2.78;;
4903;SDS011;2467;48.142;11.616;2022-08-01T01:09:46;3.17;;;2.97;;
4903;SDS011;2467;48.142;11.616;2022-08-01T01:10:25;2.95;;;2.75;;
4903;SDS011;2467;48.142;11.616;2022-08-01T01:11:04;2.80;;;2.60;;
4903;SDS011;2467;48.142;11.616;2022-08-01T01:11:44;2.88;;;2.70;;
4903;SDS011;2467;48.142;11.616;2022-08-01T01:12:22;2.47;;;2.38;;
4903;SDS011;2467;48.142;11.616;2022-08-01T01:12:59;2.65;;;2.55;;
4903;SDS011;2467;48.142;11.616;2022-08-01T01:13:37;3.90;;;3.60;;
4903;SDS011;2467;48.142;11.616;2022-08-01T01:14:23;2.70;;;2.60;;
4903;SDS011;2467;48.142;11.616;2022-08-01T01:15:02;2.40;;;2.30;;
4903;SDS011;2467;48.142;11.616;2022-08-01T01:15:39;2.97;;;2.85;;
4903;SDS011;2467;48.142;11.616;2022-08-01T01:16:16;3.13;;;2.92;;
4903;SDS011;2467;48.142;11.616;2022-08-01T01:16:51;3.35;;;3.08;;
4903;SDS011;2467;48.142;11.616;2022-08-01T01:17:26;3.20;;;2.90;;
4903;SDS011;2467;48.142;11.616;2022-08-01T01:18:22;3.17;;;2.97;;
4903;SDS011;2467;48.142;11.616;2022-08-01T01:18:57;2.85;;;2.65;;
4903;SDS011;2467;48.142;11.616;2022-08-01T01:19:35;3.15;;;2.95;;
4903;SDS011;2467;48.142;11.616;2022-08-01T01:20:12;2.63;;;2.53;;
4903;SDS011;2467;48.142;11.616;2022-08-01T01:20:48;3.53;;;3.22;;
4903;SDS011;2467;48.142;11.616;2022-08-01T01:21:44;5.50;;;2.90;;
4903;SDS011;2467;48.142;11.616;2022-08-01T01:22:32;2.88;;;2.50;;
4903;SDS011;2467;48.142;11.616;2022-08-01T01:23:12;3.70;;;3.40;;
4903;SDS011;2467;48.142;11.616;2022-08-01T01:24:03;3.35;;;3.15;;
4903;SDS011;2467;48.142;11.616;2022-08-01T01:24:47;3.10;;;2.90;;
4903;SDS011;2467;48.142;11.616;2022-08-01T01:25:41;3.55;;;3.25;;
4903;SDS011;2467;48.142;11.616;2022-08-01T01:26:28;3.30;;;3.10;;
4903;SDS011;2467;48.142;11.616;2022-08-01T01:27:10;3.13;;;3.00;;
4903;SDS011;2467;48.142;11.616;2022-08-01T01:27:57;3.20;;;3.00;;
4903;SDS011;2467;48.142;11.616;2022-08-01T01:28:40;3.22;;;2.97;;
4903;SDS011;2467;48.142;11.616;2022-08-01T01:29:40;3.45;;;3.15;;
4903;SDS011;2467;48.142;11.616;2022-08-01T01:30:31;3.15;;;2.88;;
4903;SDS011;2467;48.142;11.616;2022-08-01T01:31:05;3.50;;;3.30;;
4903;SDS011;2467;48.142;11.616;2022-08-01T01:31:43;2.50;;;2.22;;
4903;SDS011;2467;48.142;11.616;2022-08-01T01:32:18;3.17;;;2.88;;
4903;SDS011;2467;48.142;11.616;2022-08-01T01:33:02;3.33;;;3.10;;
4903;SDS011;2467;48.142;11.616;2022-08-01T01:33:37;2.90;;;2.70;;
4903;SDS011;2467;48.142;11.616;2022-08-01T01:34:18;2.90;;;2.70;;
4903;SDS011;2467;48.142;11.616;2022-08-01T01:34:52;3.47;;;3.13;;
4903;SDS011;2467;48.142;11.616;2022-08-01T01:35:27;3.42;;;3.00;;
4903;SDS011;2467;48.142;11.616;2022-08-01T01:36:04;3.15;;;3.00;;
4903;SDS011;2467;48.142;11.616;2022-08-01T01:36:42;2.95;;;2.75;;
4903;SDS011;2467;48.142;11.616;2022-08-01T01:37:17;3.15;;;2.95;;
4903;SDS011;2467;48.142;11.616;2022-08-01T01:37:57;2.80;;;2.60;;
4903;SDS011;2467;48.142;11.616;2022-08-01T01:38:33;3.00;;;2.85;;
4903;SDS011;2467;48.142;11.616;2022-08-01T01:39:13;3.00;;;2.80;;
4903;SDS011;2467;48.142;11.616;2022-08-01T01:39:48;3.80;;;3.50;;
4903;SDS011;2467;48.142;11.616;2022-08-01T01:40:24;3.30;;;3.03;;
4903;SDS011;2467;48.142;11.616;2022-08-01T01:40:59;3.22;;;3.03;;
4903;SDS011;2467;48.142;11.616;2022-08-01T01:41:33;2.80;;;2.63;;
4903;SDS011;2467;48.142;11.616;2022-08-01T01:42:08;2.70;;;2.60;;
4903;SDS011;2467;48.142;11.616;2022-08-01T01:42:43;2.90;;;2.70;;
4903;SDS011;2467;48.142;11.616;2022-08-01T01:43:16;3.58;;;3.28;;
4903;SDS011;2467;48.142;11.616;2022-08-01T01:43:49;6.13;;;3.17;;
4903;SDS011;2467;48.142;11.616;2022-08-01T01:44:23;3.83;;;3.53;;
4903;SDS011;2467;48.142;11.616;2022-08-01T01:44:58;3.35;;;2.78;;
4903;SDS011;2467;48.142;11.616;2022-08-01T01:45:35;2.95;;;2.75;;
4903;SDS011;2467;48.142;11.616;2022-08-01T01:46:09;3.03;;;2.83;;
4903;SDS011;2467;48.142;11.616;2022-08-01T01:46:42;3.10;;;2.90;;
4903;SDS011;2467;48.142;11.616;2022-08-01T01:47:16;3.20;;;3.00;;
4903;SDS011;2467;48.142;11.616;2022-08-01T01:47:49;3.30;;;3.13;;
4903;SDS011;2467;48.142;11.616;2022-08-01T01:48:21;3.20;;;2.90;;
4903;SDS011;2467;48.142;11.616;2022-08-01T01:48:56;2.80;;;2.60;;
4903;SDS011;2467;48.142;11.616;2022-08-01T01:49:28;4.05;;;3.85;;
4903;SDS011;2467;48.142;11.616;2022-08-01T01:50:04;3.45;;;3.15;;
4903;SDS011;2467;48.142;11.616;2022-08-01T01:50:39;3.72;;;3.47;;
4903;SDS011;2467;48.142;11.616;2022-08-01T01:51:13;3.17;;;2.97;;
4903;SDS011;2467;48.142;11.616;2022-08-01T01:51:48;3.17;;;2.90;;
4903;SDS011;2467;48.142;11.616;2022-08-01T01:52:33;3.90;;;3.10;;
4903;SDS011;2467;48.142;11.616;2022-08-01T01:53:07;2.90;;;2.70;;
4903;SDS011;2467;48.142;11.616;2022-08-01T01:53:45;3.35;;;3.08;;
4903;SDS011;2467;48.142;11.616;2022-08-01T01:54:20;3.50;;;3.30;;
4903;SDS011;2467;48.142;11.616;2022-08-01T01:54:55;3.03;;;2.75;;
4903;SDS011;2467;48.142;11.616;2022-08-01T01:55:29;3.22;;;2.92;;
4903;SDS011;2467;48.142;11.616;2022-08-01T01:56:06;2.80;;;2.70;;
4903;SDS011;2467;48.142;11.616;2022-08-01T01:56:42;2.67;;;2.47;;
4903;SDS011;2467;48.142;11.616;2022-08-01T01:57:19;3.03;;;2.80;;
4903;SDS011;2467;48.142;11.616;2022-08-01T01:57:52;3.35;;;3.15;;
4903;SDS011;2467;48.142;11.616;2022-08-01T01:58:27;5.80;;;3.55;;
4903;SDS011;2467;48.142;11.616;2022-08-01T01:59:02;3.47;;;3.25;;
4903;SDS011;2467;48.142;11.616;2022-08-01T01:59:35;3.20;;;3.00;;
4903;SDS011;2467;48.142;11.616;2022-08-01T02:00:12;3.20;;;3.00;;
4903;SDS011;2467;48.142;11.616;2022-08-01T02:00:46;3.35;;;3.15;;
4903;SDS011;2467;48.142;11.616;2022-08-01T02:01:20;3.20;;;2.90;;
4903;SDS011;2467;48.142;11.616;2022-08-01T02:02:15;3.22;;;3.05;;
4903;SDS011;2467;48.142;11.616;2022-08-01T02:02:48;3.90;;;3.20;;
4903;SDS011;2467;48.142;11.616;2022-08-01T02:03:23;3.20;;;3.00;;
4903;SDS011;2467;48.142;11.616;2022-08-01T02:03:57;3.35;;;3.15;;
4903;SDS011;2467;48.142;11.616;2022-08-01T02:04:31;2.95;;;2.80;;
4903;SDS011;2467;48.142;11.616;2022-08-01T02:05:05;3.45;;;2.88;;
4903;SDS011;2467;48.142;11.616;2022-08-01T02:05:39;2.92;;;2.72;;
4903;SDS011;2467;48.142;11.616;2022-08-01T02:06:13;7.55;;;3.92;;
4903;SDS011;2467;48.142;11.616;2022-08-01T02:06:48;3.25;;;3.05;;
4903;SDS011;2467;48.142;11.616;2022-08-01T02:07:22;3.08;;;2.70;;
4903;SDS011;2467;48.142;11.616;2022-08-01T02:07:56;3.45;;;3.13;;
4903;SDS011;2467;48.142;11.616;2022-08-01T02:08:30;3.15;;;2.85;;
4903;SDS011;2467;48.142;11.616;2022-08-01T02:09:04;3.67;;;3.38;;
4903;SDS011;2467;48.142;11.616;2022-08-01T02:09:40;3.20;;;2.90;;
4903;SDS011;2467;48.142;11.616;2022-08-01T02:10:15;2.92;;;2.72;;
4903;SDS011;2467;48.142;11.616;2022-08-01T02:10:50;2.95;;;2.70;;
4903;SDS011;2467;48.142;11.616;2022-08-01T02:11:39;4.07;;;3.75;;
4903;SDS011;2467;48.142;11.616;2022-08-01T02:12:35;3.30;;;3.10;;
4903;SDS011;2467;48.142;11.616;2022-08-01T02:13:08;3.00;;;2.80;;
4903;SDS011;2467;48.142;11.616;2022-08-01T02:13:42;2.97;;;2.78;;
4903;SDS011;2467;48.142;11.616;2022-08-01T02:14:16;3.50;;;3.22;;
4903;SDS011;2467;48.142;11.616;2022-08-01T02:14:51;3.72;;;3.42;;
4903;SDS011;2467;48.142;11.616;2022-08-01T02:15:28;2.95;;;2.72;;
4903;SDS011;2467;48.142;11.616;2022-08-01T02:16:01;4.30;;;3.30;;
4903;SDS011;2467;48.142;11.616;2022-08-01T02:16:35;2.80;;;2.70;;
4903;SDS011;2467;48.142;11.616;2022-08-01T02:17:09;2.90;;;2.70;;
4903;SDS011;2467;48.142;11.616;2022-08-01T02:17:43;3.17;;;2.97;;
4903;SDS011;2467;48.142;11.616;2022-08-01T02:18:17;3.10;;;2.90;;
4903;SDS011;2467;48.142;11.616;2022-08-01T02:18:54;3.10;;;2.90;;
4903;SDS011;2467;48.142;11.616;2022-08-01T02:19:26;3.10;;;2.90;;
4903;SDS011;2467;48.142;11.616;2022-08-01T02:19:58;3.90;;;3.50;;
4903;SDS011;2467;48.142;11.616;2022-08-01T02:20:31;3.20;;;3.00;;
4903;SDS011;2467;48.142;11.616;2022-08-01T02:21:08;2.63;;;2.53;;
4903;SDS011;2467;48.142;11.616;2022-08-01T02:21:44;3.65;;;3.05;;
4903;SDS011;2467;48.142;11.616;2022-08-01T02:22:23;3.90;;;3.70;;
4903;SDS011;2467;48.142;11.616;2022-08-01T02:23:00;3.80;;;3.40;;
4903;SDS011;2467;48.142;11.616;2022-08-01T02:23:37;4.82;;;3.30;;
4903;SDS011;2467;48.142;11.616;2022-08-01T02:24:13;4.00;;;3.70;;
4903;SDS011;2467;48.142;11.616;2022-08-01T02:24:49;4.47;;;4.07;;
4903;SDS011;2467;48.142;11.616;2022-08-01T02:25:27;5.28;;;4.82;;
4903;SDS011;2467;48.142;11.616;2022-08-01T02:26:07;5.30;;;4.80;;
4903;SDS011;2467;48.142;11.616;2022-08-01T02:26:43;4.70;;;4.20;;
4903;SDS011;2467;48.142;11.616;2022-08-01T02:27:20;5.35;;;4.95;;
4903;SDS011;2467;48.142;11.616;2022-08-01T02:27:58;6.40;;;5.82;;
4903;SDS011;2467;48.142;11.616;2022-08-01T02:28:36;6.35;;;5.82;;
4903;SDS011;2467;48.142;11.616;2022-08-01T02:29:13;6.28;;;5.88;;
4903;SDS011;2467;48.142;11.616;2022-08-01T02:29:52;5.63;;;5.22;;
4903;SDS011;2467;48.142;11.616;2022-08-01T02:30:31;7.68;;;6.72;;
4903;SDS011;2467;48.142;11.616;2022-08-01T02:31:06;7.50;;;6.80;;
4903;SDS011;2467;48.142;11.616;2022-08-01T02:31:45;6.95;;;6.35;;
4903;SDS011;2467;48.142;11.616;2022-08-01T02:32:20;7.47;;;6.57;;
4903;SDS011;2467;48.142;11.616;2022-08-01T02:32:58;7.05;;;6.18;;
4903;SDS011;2467;48.142;11.616;2022-08-01T02:33:35;8.35;;;6.85;;
4903;SDS011;2467;48.142;11.616;2022-08-01T02:34:09;7.57;;;6.78;;
4903;SDS011;2467;48.142;11.616;2022-08-01T02:34:44;6.65;;;5.88;;
4903;SDS011;2467;48.142;11.616;2022-08-01T02:35:22;6.70;;;6.00;;
4903;SDS011;2467;48.142;11.616;2022-08-01T02:35:58;7.53;;;5.47;;
4903;SDS011;2467;48.142;11.616;2022-08-01T02:36:52;7.88;;;6.20;;
4903;SDS011;2467;48.142;11.616;2022-08-01T02:37:28;5.35;;;4.47;;
4903;SDS011;2467;48.142;11.616;2022-08-01T02:38:05;6.32;;;5.32;;
4903;SDS011;2467;48.142;11.616;2022-08-01T02:38:42;6.20;;;5.20;;
4903;SDS011;2467;48.142;11.616;2022-08-01T02:39:16;6.03;;;5.55;;
4903;SDS011;2467;48.142;11.616;2022-08-01T02:39:50;5.72;;;5.18;;
4903;SDS011;2467;48.142;11.616;2022-08-01T02:40:26;4.60;;;4.20;;
4903;SDS011;2467;48.142;11.616;2022-08-01T02:41:00;4.35;;;3.95;;
4903;SDS011;2467;48.142;11.616;2022-08-01T02:41:38;4.13;;;3.80;;
4903;SDS011;2467;48.142;11.616;2022-08-01T02:42:14;4.80;;;3.67;;
4903;SDS011;2467;48.142;11.616;2022-08-01T02:42:49;3.88;;;3.55;;
4903;SDS011;2467;48.142;11.616;2022-08-01T02:43:24;4.90;;;4.50;;
4903;SDS011;2467;48.142;11.616;2022-08-01T02:44:02;3.63;;;3.42;;
4903;SDS011;2467;48.142;11.616;2022-08-01T02:44:37;4.07;;;3.78;;
4903;SDS011;2467;48.142;11.616;2022-08-01T02:45:10;3.85;;;3.55;;
4903;SDS011;2467;48.142;11.616;2022-08-01T02:45:47;3.55;;;3.35;;
4903;SDS011;2467;48.142;11.616;2022-08-01T02:46:25;2.67;;;2.47;;
4903;SDS011;2467;48.142;11.616;2022-08-01T02:47:01;3.53;;;3.22;;
4903;SDS011;2467;48.142;11.616;2022-08-01T02:47:35;2.55;;;2.30;;
4903;SDS011;2467;48.142;11.616;2022-08-01T02:48:11;3.65;;;3.35;;
4903;SDS011;2467;48.142;11.616;2022-08-01T02:48:45;3.35;;;3.15;;
4903;SDS011;2467;48.142;11.616;2022-08-01T02:49:20;3.38;;;3.15;;
4903;SDS011;2467;48.142;11.616;2022-08-01T02:49:54;3.17;;;2.97;;
4903;SDS011;2467;48.142;11.616;2022-08-01T02:50:29;3.03;;;2.83;;
4903;SDS011;2467;48.142;11.616;2022-08-01T02:51:02;3.83;;;3.53;;
4903;SDS011;2467;48.142;11.616;2022-08-01T02:51:35;2.67;;;2.53;;
4903;SDS011;2467;48.142;11.616;2022-08-01T02:52:10;3.67;;;3.05;;
4903;SDS011;2467;48.142;11.616;2022-08-01T02:52:46;3.20;;;3.00;;
4903;SDS011;2467;48.142;11.616;2022-08-01T02:53:21;3.70;;;2.88;;
4903;SDS011;2467;48.142;11.616;2022-08-01T02:54:15;2.92;;;2.72;;
4903;SDS011;2467;48.142;11.616;2022-08-01T02:54:50;3.45;;;3.25;;
4903;SDS011;2467;48.142;11.616;2022-08-01T02:55:26;2.88;;;2.67;;
4903;SDS011;2467;48.142;11.616;2022-08-01T02:56:00;3.22;;;2.88;;
4903;SDS011;2467;48.142;11.616;2022-08-01T02:56:34;5.82;;;2.95;;
4903;SDS011;2467;48.142;11.616;2022-08-01T02:57:08;3.17;;;2.90;;
4903;SDS011;2467;48.142;11.616;2022-08-01T02:57:44;3.85;;;3.45;;
4903;SDS011;2467;48.142;11.616;2022-08-01T02:58:26;4.50;;;4.20;;
4903;SDS011;2467;48.142;11.616;2022-08-01T02:59:01;3.60;;;2.90;;
4903;SDS011;2467;48.142;11.616;2022-08-01T02:59:36;2.90;;;2.70;;
4903;SDS011;2467;48.142;11.616;2022-08-01T03:00:11;3.50;;;3.20;;
4903;SDS011;2467;48.142;11.616;2022-08-01T03:00:44;3.50;;;3.20;;
4903;SDS011;2467;48.142;11.616;2022-08-01T03:01:20;2.97;;;2.88;;
4903;SDS011;2467;48.142;11.616;2022-08-01T03:01:57;3.35;;;2.92;;
4903;SDS011;2467;48.142;11.616;2022-08-01T03:02:33;2.80;;;2.60;;
4903;SDS011;2467;48.142;11.616;2022-08-01T03:03:06;3.80;;;3.58;;
4903;SDS011;2467;48.142;11.616;2022-08-01T03:03:39;3.05;;;2.90;;
4903;SDS011;2467;48.142;11.616;2022-08-01T03:04:12;3.22;;;2.72;;
4903;SDS011;2467;48.142;11.616;2022-08-01T03:04:45;5.93;;;3.40;;
4903;SDS011;2467;48.142;11.616;2022-08-01T03:05:18;3.08;;;2.88;;
4903;SDS011;2467;48.142;11.616;2022-08-01T03:05:52;3.30;;;3.00;;
4903;SDS011;2467;48.142;11.616;2022-08-01T03:06:24;3.53;;;3.05;;
4903;SDS011;2467;48.142;11.616;2022-08-01T03:06:57;2.53;;;2.33;;
4903;SDS011;2467;48.142;11.616;2022-08-01T03:07:32;3.33;;;3.08;;
4903;SDS011;2467;48.142;11.616;2022-08-01T03:08:10;3.50;;;3.20;;
4903;SDS011;2467;48.142;11.616;2022-08-01T03:08:45;2.95;;;2.75;;
4903;SDS011;2467;48.142;11.616;2022-08-01T03:09:19;3.35;;;3.05;;
4903;SDS011;2467;48.142;11.616;2022-08-01T03:09:52;3.30;;;3.10;;
4903;SDS011;2467;48.142;11.616;2022-08-01T03:10:26;3.55;;;3.35;;
4903;SDS011;2467;48.142;11.616;2022-08-01T03:10:59;3.08;;;2.78;;
4903;SDS011;2467;48.142;11.616;2022-08-01T03:11:34;3.45;;;3.03;;
4903;SDS011;2467;48.142;11.616;2022-08-01T03:12:11;2.95;;;2.75;;
4903;SDS011;2467;48.142;11.616;2022-08-01T03:12:48;3.20;;;3.00;;
4903;SDS011;2467;48.142;11.616;2022-08-01T03:13:20;3.80;;;3.60;;
4903;SDS011;2467;48.142;11.616;2022-08-01T03:13:55;3.55;;;2.90;;
4903;SDS011;2467;48.142;11.616;2022-08-01T03:14:31;3.95;;;3.20;;
4903;SDS011;2467;48.142;11.616;2022-08-01T03:15:06;3.38;;;2.70;;
4903;SDS011;2467;48.142;11.616;2022-08-01T03:15:40;4.63;;;3.05;;
4903;SDS011;2467;48.142;11.616;2022-08-01T03:16:15;3.25;;;3.05;;
4903;SDS011;2467;48.142;11.616;2022-08-01T03:16:49;3.53;;;3.22;;
4903;SDS011;2467;48.142;11.616;2022-08-01T03:17:23;3.03;;;2.85;;
4903;SDS011;2467;48.142;11.616;2022-08-01T03:17:58;2.95;;;2.75;;
4903;SDS011;2467;48.142;11.616;2022-08-01T03:18:32;3.20;;;3.00;;
4903;SDS011;2467;48.142;11.616;2022-08-01T03:19:05;3.50;;;3.30;;
4903;SDS011;2467;48.142;11.616;2022-08-01T03:19:40;3.50;;;3.17;;
4903;SDS011;2467;48.142;11.616;2022-08-01T03:20:16;4.18;;;2.92;;
4903;SDS011;2467;48.142;11.616;2022-08-01T03:20:50;3.00;;;2.80;;
4903;SDS011;2467;48.142;11.616;2022-08-01T03:21:24;3.75;;;3.40;;
4903;SDS011;2467;48.142;11.616;2022-08-01T03:21:59;6.28;;;2.70;;
4903;SDS011;2467;48.142;11.616;2022-08-01T03:22:34;4.90;;;3.25;;
4903;SDS011;2467;48.142;11.616;2022-08-01T03:23:11;2.75;;;2.55;;
4903;SDS011;2467;48.142;11.616;2022-08-01T03:23:43;3.75;;;3.22;;
4903;SDS011;2467;48.142;11.616;2022-08-01T03:24:16;3.80;;;3.50;;
4903;SDS011;2467;48.142;11.616;2022-08-01T03:24:52;4.65;;;2.65;;
4903;SDS011;2467;48.142;11.616;2022-08-01T03:25:25;3.40;;;3.13;;
4903;SDS011;2467;48.142;11.616;2022-08-01T03:26:00;4.05;;;3.00;;
4903;SDS011;2467;48.142;11.616;2022-08-01T03:26:33;2.80;;;2.60;;
4903;SDS011;2467;48.142;11.616;2022-08-01T03:27:07;4.30;;;3.42;;
4903;SDS011;2467;48.142;11.616;2022-08-01T03:27:43;3.20;;;3.00;;
4903;SDS011;2467;48.142;11.616;2022-08-01T03:28:18;3.10;;;2.90;;
4903;SDS011;2467;48.142;11.616;2022-08-01T03:29:01;5.30;;;3.35;;
4903;SDS011;2467;48.142;11.616;2022-08-01T03:29:38;2.88;;;2.70;;
4903;SDS011;2467;48.142;11.616;2022-08-01T03:30:11;2.63;;;2.50;;
4903;SDS011;2467;48.142;11.616;2022-08-01T03:30:44;3.40;;;3.08;;
4903;SDS011;2467;48.142;11.616;2022-08-01T03:31:19;3.25;;;2.95;;
4903;SDS011;2467;48.142;11.616;2022-08-01T03:31:52;3.67;;;3.40;;
4903;SDS011;2467;48.142;11.616;2022-08-01T03:32:25;2.53;;;2.33;;
4903;SDS011;2467;48.142;11.616;2022-08-01T03:33:00;2.88;;;2.67;;
4903;SDS011;2467;48.142;11.616;2022-08-01T03:33:32;3.03;;;2.80;;
4903;SDS011;2467;48.142;11.616;2022-08-01T03:34:05;3.00;;;2.90;;
4903;SDS011;2467;48.142;11.616;2022-08-01T03:34:38;2.70;;;2.50;;
4903;SDS011;2467;48.142;11.616;2022-08-01T03:35:10;3.15;;;2.95;;
4903;SDS011;2467;48.142;11.616;2022-08-01T03:35:45;5.10;;;3.45;;
4903;SDS011;2467;48.142;11.616;2022-08-01T03:36:21;3.70;;;3.40;;
4903;SDS011;2467;48.142;11.616;2022-08-01T03:36:59;2.72;;;2.55;;
4903;SDS011;2467;48.142;11.616;2022-08-01T03:37:36;3.90;;;3.60;;